createdAt,value
2022-12-18T00:01:58.176Z,16.17
2022-12-18T00:04:29.050Z,15.10
2022-12-18T00:06:57.984Z,14.13
2022-12-18T00:09:31.047Z,15.57
2022-12-18T00:14:47.571Z,14.77
2022-12-18T00:17:17.808Z,13.10
2022-12-18T00:19:46.618Z,13.43
2022-12-18T00:22:19.610Z,13.43
2022-12-18T00:24:48.374Z,15.50
2022-12-18T00:27:17.069Z,16.20
2022-12-18T00:29:46.959Z,14.13
2022-12-18T00:32:17.227Z,13.10
2022-12-18T00:34:46.037Z,13.43
2022-12-18T00:37:19.892Z,14.63
2022-12-18T00:39:53.207Z,14.73
2022-12-18T00:42:39.700Z,14.00
2022-12-18T00:45:12.947Z,14.30
2022-12-18T00:49:06.502Z,13.13
2022-12-18T00:51:36.806Z,11.80
2022-12-18T00:54:05.977Z,10.27
2022-12-18T00:56:34.672Z,11.03
2022-12-18T00:59:03.922Z,13.40
2022-12-18T01:01:34.848Z,11.87
2022-12-18T01:04:04.981Z,9.43
2022-12-18T01:06:35.205Z,8.67
2022-12-18T01:09:28.596Z,8.47
2022-12-18T01:11:57.369Z,9.10
2022-12-18T01:14:26.612Z,11.90
2022-12-18T01:16:55.646Z,11.80
2022-12-18T01:19:24.887Z,12.37
2022-12-18T01:21:55.000Z,13.00
2022-12-18T01:24:24.399Z,10.97
2022-12-18T01:26:53.403Z,8.57
2022-12-18T01:29:22.306Z,8.13
2022-12-18T01:31:51.163Z,8.10
2022-12-18T01:34:19.965Z,8.67
2022-12-18T01:36:48.765Z,8.00
2022-12-18T01:39:18.872Z,7.70
2022-12-18T01:42:06.555Z,7.90
2022-12-18T01:45:00.622Z,7.27
2022-12-18T01:47:37.189Z,7.50
2022-12-18T01:50:13.637Z,7.63
2022-12-18T01:52:46.351Z,7.00
2022-12-18T01:55:21.023Z,7.37
2022-12-18T01:57:51.852Z,7.00
2022-12-18T02:00:23.975Z,7.37
2022-12-18T02:02:55.015Z,7.53
2022-12-18T02:05:43.092Z,7.47
2022-12-18T02:08:35.728Z,6.53
2022-12-18T02:11:15.067Z,7.53
2022-12-18T02:13:55.452Z,7.63
2022-12-18T02:16:36.949Z,7.30
2022-12-18T02:19:23.205Z,6.77
2022-12-18T02:22:09.119Z,6.20
2022-12-18T02:24:47.646Z,6.33
2022-12-18T02:27:19.519Z,6.67
2022-12-18T02:29:58.624Z,7.30
2022-12-18T02:32:36.529Z,6.50
2022-12-18T02:35:09.353Z,6.10
2022-12-18T02:37:44.601Z,6.30
2022-12-18T02:40:14.774Z,6.20
2022-12-18T02:42:45.339Z,6.00
2022-12-18T02:45:18.119Z,6.37
2022-12-18T02:47:52.360Z,5.53
2022-12-18T02:50:33.377Z,5.70
2022-12-18T02:53:13.085Z,5.87
2022-12-18T02:55:59.907Z,6.07
2022-12-18T02:58:42.647Z,5.90
2022-12-18T03:01:26.973Z,6.00
2022-12-18T03:04:03.126Z,5.97
2022-12-18T03:06:39.943Z,5.83
2022-12-18T03:09:16.979Z,5.47
2022-12-18T03:12:15.219Z,5.93
2022-12-18T03:14:51.649Z,5.13
2022-12-18T03:17:25.687Z,5.47
2022-12-18T03:20:00.699Z,5.03
2022-12-18T03:22:37.234Z,5.10
2022-12-18T03:25:13.629Z,5.40
2022-12-18T03:27:50.621Z,5.40
2022-12-18T03:30:21.296Z,5.30
2022-12-18T03:33:00.138Z,5.17
2022-12-18T03:35:36.186Z,4.93
2022-12-18T03:38:06.832Z,5.40
2022-12-18T03:40:54.157Z,5.50
2022-12-18T03:43:40.466Z,5.37
2022-12-18T03:46:21.597Z,5.70
2022-12-18T03:49:11.120Z,5.30
2022-12-18T03:51:48.640Z,5.80
2022-12-18T03:54:19.923Z,5.63
2022-12-18T03:57:05.496Z,5.37
2022-12-18T03:59:37.219Z,5.57
2022-12-18T04:02:10.329Z,5.70
2022-12-18T04:04:47.533Z,5.80
2022-12-18T04:07:19.343Z,6.30
2022-12-18T04:09:50.628Z,5.77
2022-12-18T04:13:12.939Z,5.87
2022-12-18T04:15:43.493Z,6.07
2022-12-18T04:18:18.233Z,5.63
2022-12-18T04:20:47.207Z,5.63
2022-12-18T04:23:16.081Z,5.53
2022-12-18T04:25:45.165Z,5.87
2022-12-18T04:28:19.284Z,6.43
2022-12-18T04:30:52.359Z,5.27
2022-12-18T04:33:23.991Z,5.50
2022-12-18T04:35:53.827Z,5.20
2022-12-18T04:38:22.866Z,5.23
2022-12-18T04:40:59.332Z,5.03
2022-12-18T04:43:29.633Z,5.10
2022-12-18T04:46:05.734Z,4.93
2022-12-18T04:48:37.484Z,4.50
2022-12-18T04:51:08.399Z,5.13
2022-12-18T04:53:38.595Z,4.73
2022-12-18T04:56:10.691Z,4.40
2022-12-18T04:58:40.832Z,4.30
2022-12-18T05:01:10.977Z,4.83
2022-12-18T05:03:42.380Z,4.40
2022-12-18T05:06:12.237Z,4.67
2022-12-18T05:08:41.141Z,4.97
2022-12-18T05:11:13.028Z,4.70
2022-12-18T05:13:42.190Z,4.97
2022-12-18T05:16:13.027Z,5.27
2022-12-18T05:18:45.740Z,5.03
2022-12-18T05:21:14.619Z,5.63
2022-12-18T05:23:43.760Z,5.07
2022-12-18T05:26:21.548Z,5.87
2022-12-18T05:28:50.359Z,5.40
2022-12-18T05:31:19.254Z,5.50
2022-12-18T05:33:52.300Z,5.67
2022-12-18T05:36:26.307Z,5.60
2022-12-18T05:38:55.178Z,6.13
2022-12-18T05:41:24.109Z,5.63
2022-12-18T05:43:52.822Z,5.73
2022-12-18T05:46:21.603Z,5.67
2022-12-18T05:48:53.237Z,5.43
2022-12-18T05:51:24.679Z,5.20
2022-12-18T05:53:53.442Z,5.20
2022-12-18T05:56:24.638Z,5.37
2022-12-18T05:58:56.281Z,6.10
2022-12-18T06:01:28.481Z,5.17
2022-12-18T06:03:58.721Z,5.60
2022-12-18T06:06:30.244Z,5.73
2022-12-18T06:08:59.417Z,5.73
2022-12-18T06:11:29.589Z,6.57
2022-12-18T06:14:00.283Z,7.53
2022-12-18T06:16:30.820Z,7.40
2022-12-18T06:19:02.874Z,7.93
2022-12-18T06:21:32.525Z,8.77
2022-12-18T06:24:03.563Z,7.70
2022-12-18T06:26:32.652Z,7.80
2022-12-18T06:29:01.844Z,6.77
2022-12-18T06:31:30.923Z,13.93
2022-12-18T06:34:01.296Z,13.77
2022-12-18T06:36:32.919Z,10.20
2022-12-18T06:39:02.298Z,7.27
2022-12-18T06:41:31.137Z,6.03
2022-12-18T06:44:00.458Z,6.10
2022-12-18T06:46:31.098Z,5.47
2022-12-18T06:49:01.719Z,5.47
2022-12-18T06:51:30.602Z,4.40
2022-12-18T06:53:59.316Z,4.67
2022-12-18T06:56:28.147Z,5.20
2022-12-18T06:58:56.880Z,5.37
2022-12-18T07:01:25.718Z,8.90
2022-12-18T07:03:55.857Z,7.87
2022-12-18T07:06:27.918Z,9.73
2022-12-18T07:08:57.962Z,5.80
2022-12-18T07:11:27.028Z,6.17
2022-12-18T07:14:02.013Z,11.17
2022-12-18T07:16:30.987Z,26.60
2022-12-18T07:19:11.340Z,18.33
2022-12-18T07:21:41.779Z,5.80
2022-12-18T07:24:11.626Z,6.87
2022-12-18T07:26:40.814Z,7.10
2022-12-18T07:29:19.476Z,7.80
2022-12-18T07:31:50.686Z,10.97
2022-12-18T07:34:22.391Z,8.77
2022-12-18T07:36:54.494Z,8.03
2022-12-18T07:39:23.808Z,10.20
2022-12-18T07:42:06.503Z,11.10
2022-12-18T07:44:38.592Z,12.20
2022-12-18T07:47:12.145Z,13.90
2022-12-18T07:49:41.328Z,13.07
2022-12-18T07:52:13.346Z,12.83
2022-12-18T07:56:05.421Z,12.10
2022-12-18T07:58:27.624Z,9.67
2022-12-18T08:00:56.466Z,10.87
2022-12-18T08:03:25.277Z,29.07
2022-12-18T08:05:54.066Z,24.80
2022-12-18T08:08:28.219Z,28.33
2022-12-18T08:10:57.155Z,17.13
2022-12-18T08:13:26.274Z,10.63
2022-12-18T08:16:05.867Z,8.93
2022-12-18T08:19:25.051Z,7.63
2022-12-18T08:21:58.883Z,6.80
2022-12-18T08:24:37.850Z,6.90
2022-12-18T08:27:28.905Z,8.90
2022-12-18T08:29:58.378Z,9.93
2022-12-18T08:32:32.775Z,10.03
2022-12-18T08:35:37.003Z,10.97
2022-12-18T08:38:07.656Z,12.23
2022-12-18T08:40:37.840Z,8.83
2022-12-18T08:43:26.790Z,9.07
2022-12-18T08:45:55.918Z,9.23
2022-12-18T08:48:38.023Z,10.83
2022-12-18T08:51:07.294Z,10.63
2022-12-18T08:53:36.071Z,12.17
2022-12-18T08:56:08.101Z,10.80
2022-12-18T08:58:44.509Z,10.70
2022-12-18T09:02:05.161Z,8.90
2022-12-18T09:04:35.158Z,7.90
2022-12-18T09:07:05.912Z,8.47
2022-12-18T09:09:35.039Z,8.53
2022-12-18T09:12:05.624Z,10.77
2022-12-18T09:14:38.120Z,14.10
2022-12-18T09:17:07.096Z,13.57
2022-12-18T09:19:39.092Z,13.17
2022-12-18T09:22:08.955Z,13.70
2022-12-18T09:24:40.010Z,12.83
2022-12-18T09:27:10.404Z,16.63
2022-12-18T09:29:39.447Z,18.20
2022-12-18T09:32:08.608Z,14.20
2022-12-18T09:34:37.735Z,13.97
2022-12-18T09:37:06.787Z,15.30
2022-12-18T09:39:38.799Z,13.13
2022-12-18T09:42:19.745Z,13.00
2022-12-18T09:44:53.542Z,10.83
2022-12-18T09:47:29.925Z,11.40
2022-12-18T09:50:06.154Z,12.70
2022-12-18T09:52:42.724Z,13.27
2022-12-18T09:55:25.231Z,11.90
2022-12-18T09:58:02.422Z,13.20
2022-12-18T10:00:31.520Z,14.20
2022-12-18T10:03:11.101Z,16.93
2022-12-18T10:05:51.277Z,15.50
2022-12-18T10:08:31.693Z,15.17
2022-12-18T10:11:23.542Z,15.53
2022-12-18T10:14:00.060Z,15.27
2022-12-18T10:16:38.792Z,16.30
2022-12-18T10:19:26.433Z,16.43
2022-12-18T10:22:13.354Z,16.60
2022-12-18T10:25:21.379Z,15.90
2022-12-18T10:27:53.941Z,16.97
2022-12-18T10:30:35.232Z,17.47
2022-12-18T10:33:04.911Z,18.27
2022-12-18T10:35:37.295Z,20.47
2022-12-18T10:38:22.770Z,22.37
2022-12-18T10:40:55.180Z,21.03
2022-12-18T10:43:28.221Z,22.37
2022-12-18T10:46:17.037Z,21.77
2022-12-18T10:48:57.225Z,21.90
2022-12-18T10:51:31.747Z,21.20
2022-12-18T10:54:06.205Z,19.87
2022-12-18T10:56:39.522Z,20.10
2022-12-18T10:59:24.265Z,19.20
2022-12-18T11:02:00.358Z,20.10
2022-12-18T11:04:31.984Z,21.13
2022-12-18T11:07:05.151Z,22.83
2022-12-18T11:09:37.495Z,24.90
2022-12-18T11:12:19.092Z,22.43
2022-12-18T11:14:52.909Z,20.33
2022-12-18T11:17:27.474Z,19.03
2022-12-18T11:19:59.361Z,17.93
2022-12-18T11:22:31.455Z,16.90
2022-12-18T11:28:00.553Z,17.27
2022-12-18T11:30:32.620Z,16.37
2022-12-18T11:33:12.494Z,15.13
2022-12-18T11:35:52.277Z,14.97
2022-12-18T11:38:26.415Z,15.27
2022-12-18T11:41:02.819Z,13.73
2022-12-18T11:43:40.528Z,15.13
2022-12-18T11:46:21.368Z,14.60
2022-12-18T11:49:01.101Z,13.73
2022-12-18T11:51:37.547Z,13.87
2022-12-18T11:54:15.152Z,14.70
2022-12-18T11:56:51.457Z,14.00
2022-12-18T11:59:35.450Z,13.27
2022-12-18T12:02:32.183Z,13.27
2022-12-18T12:05:35.460Z,13.17
2022-12-18T12:08:21.224Z,13.43
2022-12-18T12:11:04.356Z,12.80
2022-12-18T12:13:52.500Z,13.03
2022-12-18T12:16:35.356Z,13.47
2022-12-18T12:19:39.125Z,14.87
2022-12-18T12:22:23.314Z,13.57
2022-12-18T12:25:15.802Z,13.63
2022-12-18T12:28:06.182Z,14.27
2022-12-18T12:30:51.496Z,13.27
2022-12-18T12:33:38.899Z,13.63
2022-12-18T12:36:21.359Z,12.50
2022-12-18T12:39:00.880Z,12.40
2022-12-18T12:41:52.614Z,12.80
2022-12-18T12:44:29.712Z,12.77
2022-12-18T12:47:17.606Z,10.97
2022-12-18T12:49:50.244Z,13.10
2022-12-18T12:52:33.392Z,11.93
2022-12-18T12:55:14.841Z,13.07
2022-12-18T12:57:54.030Z,12.40
2022-12-18T13:00:25.377Z,12.80
2022-12-18T13:03:02.050Z,12.63
2022-12-18T13:05:42.688Z,13.63
2022-12-18T13:08:24.678Z,14.27
2022-12-18T13:11:19.659Z,13.03
2022-12-18T13:13:53.688Z,12.67
2022-12-18T13:16:26.241Z,12.93
2022-12-18T13:18:58.070Z,13.07
2022-12-18T13:21:31.737Z,12.10
2022-12-18T13:24:25.116Z,12.77
2022-12-18T13:26:55.908Z,13.40
2022-12-18T13:29:46.482Z,12.50
2022-12-18T13:32:27.725Z,12.27
2022-12-18T13:35:41.114Z,12.27
2022-12-18T13:38:26.013Z,13.37
2022-12-18T13:41:46.953Z,12.67
2022-12-18T13:44:38.540Z,13.30
2022-12-18T13:47:30.852Z,13.30
2022-12-18T13:50:01.646Z,12.60
2022-12-18T13:52:41.662Z,14.40
2022-12-18T13:56:16.479Z,15.93
2022-12-18T13:59:23.247Z,13.40
2022-12-18T14:01:58.359Z,13.00
2022-12-18T14:04:30.632Z,14.20
2022-12-18T14:07:08.787Z,12.57
2022-12-18T14:09:44.164Z,12.40
2022-12-18T14:12:40.829Z,14.00
2022-12-18T14:15:30.176Z,13.07
2022-12-18T14:18:04.947Z,12.30
2022-12-18T14:20:36.433Z,13.00
2022-12-18T14:23:05.740Z,12.90
2022-12-18T14:25:34.736Z,13.23
2022-12-18T14:28:17.768Z,23.20
2022-12-18T14:30:48.971Z,28.27
2022-12-18T14:33:25.215Z,20.30
2022-12-18T14:36:03.140Z,17.90
2022-12-18T14:38:34.486Z,20.50
2022-12-18T14:41:06.846Z,19.30
2022-12-18T14:43:39.111Z,22.83
2022-12-18T14:46:35.068Z,22.13
2022-12-18T14:49:07.921Z,21.53
2022-12-18T14:51:38.580Z,21.97
2022-12-18T14:54:18.936Z,27.43
2022-12-18T14:56:52.409Z,25.40
2022-12-18T14:59:26.896Z,21.93
2022-12-18T15:02:06.163Z,18.77
2022-12-18T15:04:40.442Z,22.50
2022-12-18T15:07:23.272Z,23.77
2022-12-18T15:10:12.640Z,23.53
2022-12-18T15:12:47.036Z,17.80
2022-12-18T15:15:48.236Z,14.10
2022-12-18T15:18:23.012Z,15.60
2022-12-18T15:20:55.964Z,18.33
2022-12-18T15:23:28.845Z,19.23
2022-12-18T15:26:01.553Z,21.40
2022-12-18T15:28:37.474Z,21.57
2022-12-18T15:31:25.624Z,21.17
2022-12-18T15:34:26.319Z,21.53
2022-12-18T15:36:57.333Z,19.10
2022-12-18T15:39:27.073Z,18.77
2022-12-18T15:42:13.715Z,17.97
2022-12-18T15:44:42.704Z,18.90
2022-12-18T15:47:15.930Z,21.73
2022-12-18T15:49:46.404Z,28.57
2022-12-18T15:52:27.093Z,23.70
2022-12-18T15:55:15.910Z,21.57
2022-12-18T15:57:44.779Z,21.10
2022-12-18T16:00:16.518Z,20.83
2022-12-18T16:02:45.701Z,19.53
2022-12-18T16:05:19.709Z,19.07
2022-12-18T16:07:49.140Z,18.27
2022-12-18T16:10:20.540Z,16.77
2022-12-18T16:12:49.939Z,15.77
2022-12-18T16:15:24.247Z,17.93
2022-12-18T16:17:53.905Z,16.53
2022-12-18T16:20:25.336Z,19.07
2022-12-18T16:22:54.760Z,19.00
2022-12-18T16:25:25.843Z,19.30
2022-12-18T16:27:57.363Z,22.57
2022-12-18T16:30:36.064Z,20.83
2022-12-18T16:33:11.172Z,20.57
2022-12-18T16:35:42.849Z,28.27
2022-12-18T16:38:13.308Z,23.63
2022-12-18T16:41:03.142Z,22.70
2022-12-18T16:43:31.943Z,21.53
2022-12-18T16:46:01.989Z,21.00
2022-12-18T16:48:31.033Z,22.17
2022-12-18T16:51:07.896Z,23.50
2022-12-18T16:53:36.811Z,22.30
2022-12-18T16:56:06.091Z,21.53
2022-12-18T16:58:36.100Z,21.23
2022-12-18T17:01:10.607Z,22.37
2022-12-18T17:03:40.950Z,20.73
2022-12-18T17:06:19.769Z,20.10
2022-12-18T17:08:49.409Z,20.23
2022-12-18T17:11:18.282Z,21.57
2022-12-18T17:13:47.453Z,24.67
2022-12-18T17:16:17.615Z,21.73
2022-12-18T17:18:46.697Z,21.83
2022-12-18T17:21:16.644Z,23.60
2022-12-18T17:23:48.206Z,21.43
2022-12-18T17:26:17.337Z,22.30
2022-12-18T17:28:46.405Z,21.63
2022-12-18T17:31:19.548Z,22.40
2022-12-18T17:33:48.854Z,20.43
2022-12-18T17:36:18.921Z,22.10
2022-12-18T17:38:54.486Z,19.33
2022-12-18T17:41:27.205Z,21.40
2022-12-18T17:43:58.487Z,22.43
2022-12-18T17:46:29.733Z,22.60
2022-12-18T17:48:59.831Z,20.90
2022-12-18T17:51:45.499Z,20.77
2022-12-18T17:54:15.997Z,22.43
2022-12-18T17:56:45.905Z,22.37
2022-12-18T17:59:17.467Z,23.10
2022-12-18T18:01:48.164Z,25.83
2022-12-18T18:04:17.400Z,24.13
2022-12-18T18:06:47.289Z,24.30
2022-12-18T18:09:17.797Z,22.87
2022-12-18T18:12:04.654Z,24.37
2022-12-18T18:14:34.043Z,30.33
2022-12-18T18:17:28.183Z,34.33
2022-12-18T18:19:58.107Z,44.10
2022-12-18T18:22:37.364Z,45.73
2022-12-18T18:25:11.769Z,46.30
2022-12-18T18:27:44.258Z,46.07
2022-12-18T18:30:16.558Z,47.57
2022-12-18T18:32:45.601Z,48.10
2022-12-18T18:35:30.937Z,45.77
2022-12-18T18:38:04.565Z,37.67
2022-12-18T18:40:34.979Z,39.13
2022-12-18T18:43:04.428Z,41.90
2022-12-18T18:45:35.042Z,49.33
2022-12-18T18:48:06.694Z,47.97
2022-12-18T18:50:35.849Z,48.83
2022-12-18T18:53:04.754Z,45.53
2022-12-18T18:55:37.712Z,43.27
2022-12-18T18:58:06.612Z,40.63
2022-12-18T19:00:41.829Z,44.73
2022-12-18T19:03:11.249Z,48.57
2022-12-18T19:05:43.056Z,44.73
2022-12-18T19:08:15.022Z,44.20
2022-12-18T19:10:45.371Z,44.73
2022-12-18T19:13:25.370Z,47.00
2022-12-18T19:15:58.020Z,49.77
2022-12-18T19:18:29.036Z,49.60
2022-12-18T19:21:00.381Z,47.63
2022-12-18T19:23:30.638Z,47.83
2022-12-18T19:26:27.013Z,46.30
2022-12-18T19:28:54.244Z,43.57
2022-12-18T19:31:27.039Z,42.87
2022-12-18T19:34:01.138Z,45.43
2022-12-18T19:36:32.120Z,47.93
2022-12-18T19:39:09.969Z,44.30
2022-12-18T19:41:40.609Z,44.40
2022-12-18T19:44:13.627Z,43.73
2022-12-18T19:46:43.542Z,44.00
2022-12-18T19:49:17.719Z,40.83
2022-12-18T19:51:50.661Z,38.77
2022-12-18T19:54:20.577Z,40.10
2022-12-18T19:56:53.260Z,41.83
2022-12-18T19:59:22.810Z,40.67
2022-12-18T20:01:53.919Z,36.53
2022-12-18T20:04:24.126Z,35.57
2022-12-18T20:06:56.381Z,38.70
2022-12-18T20:09:25.949Z,36.80
2022-12-18T20:11:56.770Z,36.23
2022-12-18T20:14:25.540Z,35.93
2022-12-18T20:16:55.352Z,34.90
2022-12-18T20:19:25.173Z,35.33
2022-12-18T20:21:54.120Z,32.17
2022-12-18T20:24:24.077Z,33.30
2022-12-18T20:26:52.936Z,34.03
2022-12-18T20:29:23.337Z,32.87
2022-12-18T20:31:52.676Z,31.03
2022-12-18T20:34:22.156Z,31.40
2022-12-18T20:36:51.553Z,29.87
2022-12-18T20:39:21.310Z,25.90
2022-12-18T20:41:51.045Z,29.33
2022-12-18T20:44:23.885Z,29.13
2022-12-18T20:46:57.951Z,33.17
2022-12-18T20:49:28.724Z,33.67
2022-12-18T20:52:02.416Z,33.17
2022-12-18T20:54:31.285Z,34.03
2022-12-18T20:57:00.150Z,34.67
2022-12-18T20:59:28.910Z,33.67
2022-12-18T21:01:59.287Z,36.03
2022-12-18T21:04:28.160Z,33.50
2022-12-18T21:07:02.338Z,37.07
2022-12-18T21:09:37.107Z,35.03
2022-12-18T21:12:45.332Z,33.07
2022-12-18T21:15:28.741Z,33.63
2022-12-18T21:17:59.108Z,35.37
2022-12-18T21:20:28.000Z,36.83
2022-12-18T21:23:00.254Z,36.03
2022-12-18T21:25:40.784Z,37.83
2022-12-18T21:28:09.484Z,36.13
2022-12-18T21:30:38.351Z,38.47
2022-12-18T21:33:08.596Z,37.33
2022-12-18T21:35:37.348Z,35.90
2022-12-18T21:38:06.085Z,35.97
2022-12-18T21:40:34.920Z,35.33
2022-12-18T21:43:48.173Z,35.43
2022-12-18T21:46:19.702Z,34.77
2022-12-18T21:48:49.940Z,34.17
2022-12-18T21:51:18.747Z,33.50
2022-12-18T21:53:47.405Z,35.03
2022-12-18T21:56:17.950Z,33.67
2022-12-18T21:58:55.451Z,34.30
2022-12-18T22:01:26.184Z,35.13
2022-12-18T22:04:07.750Z,33.47
2022-12-18T22:06:36.876Z,34.40
2022-12-18T22:09:08.109Z,33.47
2022-12-18T22:11:37.600Z,32.87
2022-12-18T22:14:06.421Z,34.73
2022-12-18T22:16:35.567Z,31.97
2022-12-18T22:19:10.237Z,35.87
2022-12-18T22:21:41.549Z,35.67
2022-12-18T22:24:15.568Z,34.10
2022-12-18T22:26:45.551Z,33.80
2022-12-18T22:29:35.603Z,33.90
2022-12-18T22:32:05.786Z,32.87
2022-12-18T22:34:36.838Z,33.13
2022-12-18T22:37:05.823Z,31.43
2022-12-18T22:39:34.629Z,30.87
2022-12-18T22:42:06.619Z,31.83
2022-12-18T22:44:35.415Z,29.10
2022-12-18T22:47:06.441Z,30.73
2022-12-18T22:49:38.907Z,31.37
2022-12-18T22:52:10.581Z,31.60
2022-12-18T22:54:39.654Z,31.13
2022-12-18T22:57:08.665Z,29.63
2022-12-18T22:59:38.437Z,31.00
2022-12-18T23:02:07.284Z,31.43
2022-12-18T23:04:37.785Z,30.07
2022-12-18T23:07:07.348Z,31.07
2022-12-18T23:09:36.491Z,31.23
2022-12-18T23:12:06.070Z,29.87
2022-12-18T23:14:34.829Z,27.73
2022-12-18T23:17:03.597Z,28.20
2022-12-18T23:19:32.474Z,28.40
2022-12-18T23:22:11.368Z,28.00
2022-12-18T23:24:40.442Z,26.87
2022-12-18T23:27:11.912Z,27.13
2022-12-18T23:29:41.602Z,26.60
2022-12-18T23:32:10.401Z,26.30
2022-12-18T23:34:39.171Z,25.50
2022-12-18T23:37:09.727Z,24.37
2022-12-18T23:39:38.595Z,24.50
2022-12-18T23:42:07.503Z,23.03
2022-12-18T23:44:36.273Z,21.83
2022-12-18T23:47:07.158Z,18.23
2022-12-18T23:49:35.986Z,17.10
2022-12-18T23:52:05.229Z,18.00
2022-12-18T23:54:36.461Z,16.53
2022-12-18T23:57:06.740Z,15.73
2022-12-18T23:59:35.789Z,14.97
